sensor_id;sensor_type;location;lat;lon;timestamp;P1;P2;P0
77320;PMS7003;66382;52.252;8.780;2023-04-30T00:01:27;5.00;5.00;4.25
77320;PMS7003;66382;52.252;8.780;2023-04-30T00:03:54;5.25;5.25;4.25
77320;PMS7003;66382;52.252;8.780;2023-04-30T00:06:20;5.00;5.00;4.00
77320;PMS7003;66382;52.252;8.780;2023-04-30T00:08:46;4.75;4.75;4.00
77320;PMS7003;66382;52.252;8.780;2023-04-30T00:11:11;5.75;5.75;4.00
77320;PMS7003;66382;52.252;8.780;2023-04-30T00:13:37;4.00;4.00;3.75
77320;PMS7003;66382;52.252;8.780;2023-04-30T00:16:03;4.00;4.00;3.50
77320;PMS7003;66382;52.252;8.780;2023-04-30T00:18:29;7.00;7.00;5.00
77320;PMS7003;66382;52.252;8.780;2023-04-30T00:20:56;5.00;5.00;4.00
77320;PMS7003;66382;52.252;8.780;2023-04-30T00:23:22;5.25;5.00;4.00
77320;PMS7003;66382;52.252;8.780;2023-04-30T00:25:48;6.50;6.50;4.75
77320;PMS7003;66382;52.252;8.780;2023-04-30T00:28:14;4.00;4.00;4.00
77320;PMS7003;66382;52.252;8.780;2023-04-30T00:30:39;4.00;4.00;4.00
77320;PMS7003;66382;52.252;8.780;2023-04-30T00:33:05;5.00;5.00;4.25
77320;PMS7003;66382;52.252;8.780;2023-04-30T00:35:31;4.50;4.50;4.00
77320;PMS7003;66382;52.252;8.780;2023-04-30T00:37:58;5.75;5.75;5.00
77320;PMS7003;66382;52.252;8.780;2023-04-30T00:40:23;5.75;5.75;4.00
77320;PMS7003;66382;52.252;8.780;2023-04-30T00:42:49;3.00;3.00;3.00
77320;PMS7003;66382;52.252;8.780;2023-04-30T00:45:15;6.00;6.00;5.00
77320;PMS7003;66382;52.252;8.780;2023-04-30T00:47:41;6.25;6.00;5.00
77320;PMS7003;66382;52.252;8.780;2023-04-30T00:50:07;4.00;4.00;3.75
77320;PMS7003;66382;52.252;8.780;2023-04-30T00:52:33;5.00;5.00;3.75
77320;PMS7003;66382;52.252;8.780;2023-04-30T00:55:00;5.00;5.00;3.50
77320;PMS7003;66382;52.252;8.780;2023-04-30T00:57:26;3.25;3.25;3.00
77320;PMS7003;66382;52.252;8.780;2023-04-30T00:59:52;5.00;5.00;4.00
77320;PMS7003;66382;52.252;8.780;2023-04-30T01:02:19;5.00;5.00;3.75
77320;PMS7003;66382;52.252;8.780;2023-04-30T01:04:45;4.00;4.00;3.50
77320;PMS7003;66382;52.252;8.780;2023-04-30T01:07:11;5.00;5.00;4.00
77320;PMS7003;66382;52.252;8.780;2023-04-30T01:09:37;4.00;4.00;3.25
77320;PMS7003;66382;52.252;8.780;2023-04-30T01:12:07;5.25;5.25;4.75
77320;PMS7003;66382;52.252;8.780;2023-04-30T01:14:39;5.25;5.25;5.00
77320;PMS7003;66382;52.252;8.780;2023-04-30T01:17:16;3.75;3.75;3.00
77320;PMS7003;66382;52.252;8.780;2023-04-30T01:19:47;4.00;4.00;3.50
77320;PMS7003;66382;52.252;8.780;2023-04-30T01:22:19;4.00;4.00;3.50
77320;PMS7003;66382;52.252;8.780;2023-04-30T01:25:00;5.00;5.00;4.00
77320;PMS7003;66382;52.252;8.780;2023-04-30T01:30:32;7.50;7.50;5.50
77320;PMS7003;66382;52.252;8.780;2023-04-30T01:32:59;6.75;6.75;5.75
77320;PMS7003;66382;52.252;8.780;2023-04-30T01:35:28;5.00;5.00;3.00
77320;PMS7003;66382;52.252;8.780;2023-04-30T01:38:19;5.75;5.75;4.50
77320;PMS7003;66382;52.252;8.780;2023-04-30T01:41:00;5.00;5.00;4.00
77320;PMS7003;66382;52.252;8.780;2023-04-30T01:43:37;5.25;5.25;3.50
77320;PMS7003;66382;52.252;8.780;2023-04-30T01:46:11;5.25;5.25;4.00
77320;PMS7003;66382;52.252;8.780;2023-04-30T01:48:45;5.75;5.75;4.50
77320;PMS7003;66382;52.252;8.780;2023-04-30T01:51:19;5.00;5.00;4.00
77320;PMS7003;66382;52.252;8.780;2023-04-30T01:53:53;4.75;4.75;4.00
77320;PMS7003;66382;52.252;8.780;2023-04-30T01:56:25;6.50;6.50;5.25
77320;PMS7003;66382;52.252;8.780;2023-04-30T01:58:57;5.00;5.00;4.00
77320;PMS7003;66382;52.252;8.780;2023-04-30T02:01:25;4.00;4.00;4.00
77320;PMS7003;66382;52.252;8.780;2023-04-30T02:03:52;4.75;4.75;4.00
77320;PMS7003;66382;52.252;8.780;2023-04-30T02:06:17;6.00;6.00;4.25
77320;PMS7003;66382;52.252;8.780;2023-04-30T02:08:43;4.75;4.75;3.50
77320;PMS7003;66382;52.252;8.780;2023-04-30T02:11:09;4.00;4.00;3.50
77320;PMS7003;66382;52.252;8.780;2023-04-30T02:13:35;4.00;4.00;3.25
77320;PMS7003;66382;52.252;8.780;2023-04-30T02:16:02;5.75;5.75;4.00
77320;PMS7003;66382;52.252;8.780;2023-04-30T02:18:28;6.00;6.00;4.00
77320;PMS7003;66382;52.252;8.780;2023-04-30T02:20:53;5.00;5.00;4.50
77320;PMS7003;66382;52.252;8.780;2023-04-30T02:23:19;4.50;4.50;4.00
77320;PMS7003;66382;52.252;8.780;2023-04-30T02:25:45;4.25;4.25;3.50
77320;PMS7003;66382;52.252;8.780;2023-04-30T02:28:10;4.25;4.25;3.00
77320;PMS7003;66382;52.252;8.780;2023-04-30T02:30:36;4.00;4.00;4.00
77320;PMS7003;66382;52.252;8.780;2023-04-30T02:33:03;4.50;4.50;3.50
77320;PMS7003;66382;52.252;8.780;2023-04-30T02:35:29;5.00;5.00;3.75
77320;PMS7003;66382;52.252;8.780;2023-04-30T02:37:55;6.00;6.00;4.75
77320;PMS7003;66382;52.252;8.780;2023-04-30T02:40:20;4.00;4.00;3.75
77320;PMS7003;66382;52.252;8.780;2023-04-30T02:42:46;4.75;4.75;4.00
77320;PMS7003;66382;52.252;8.780;2023-04-30T02:45:12;5.50;5.00;4.50
77320;PMS7003;66382;52.252;8.780;2023-04-30T02:47:38;5.00;5.00;4.75
77320;PMS7003;66382;52.252;8.780;2023-04-30T02:50:06;9.00;6.00;5.00
77320;PMS7003;66382;52.252;8.780;2023-04-30T02:52:32;6.00;6.00;5.00
77320;PMS7003;66382;52.252;8.780;2023-04-30T02:54:57;7.00;7.00;5.00
77320;PMS7003;66382;52.252;8.780;2023-04-30T02:57:23;4.00;4.00;4.00
77320;PMS7003;66382;52.252;8.780;2023-04-30T02:59:49;6.00;6.00;4.25
77320;PMS7003;66382;52.252;8.780;2023-04-30T03:02:15;5.75;5.75;5.00
77320;PMS7003;66382;52.252;8.780;2023-04-30T03:04:41;6.00;6.00;5.00
77320;PMS7003;66382;52.252;8.780;2023-04-30T03:07:08;5.75;5.75;4.00
77320;PMS7003;66382;52.252;8.780;2023-04-30T03:09:35;4.50;4.50;4.25
77320;PMS7003;66382;52.252;8.780;2023-04-30T03:12:00;7.00;7.00;5.50
77320;PMS7003;66382;52.252;8.780;2023-04-30T03:14:26;7.25;7.25;5.00
77320;PMS7003;66382;52.252;8.780;2023-04-30T03:16:52;6.50;6.50;5.00
77320;PMS7003;66382;52.252;8.780;2023-04-30T03:19:17;5.00;4.50;4.00
77320;PMS7003;66382;52.252;8.780;2023-04-30T03:21:43;7.00;7.00;5.25
77320;PMS7003;66382;52.252;8.780;2023-04-30T03:24:10;5.75;5.75;4.00
77320;PMS7003;66382;52.252;8.780;2023-04-30T03:26:36;8.00;8.00;5.00
77320;PMS7003;66382;52.252;8.780;2023-04-30T03:29:02;4.50;4.50;4.00
77320;PMS7003;66382;52.252;8.780;2023-04-30T03:31:27;6.00;6.00;5.00
77320;PMS7003;66382;52.252;8.780;2023-04-30T03:33:53;8.50;8.00;5.25
77320;PMS7003;66382;52.252;8.780;2023-04-30T03:36:19;6.00;6.00;5.00
77320;PMS7003;66382;52.252;8.780;2023-04-30T03:38:44;7.25;7.25;6.00
77320;PMS7003;66382;52.252;8.780;2023-04-30T03:41:11;4.00;4.00;4.00
77320;PMS7003;66382;52.252;8.780;2023-04-30T03:43:37;5.75;5.75;5.00
77320;PMS7003;66382;52.252;8.780;2023-04-30T03:46:03;7.25;7.25;5.00
77320;PMS7003;66382;52.252;8.780;2023-04-30T03:48:29;5.00;5.00;4.75
77320;PMS7003;66382;52.252;8.780;2023-04-30T03:50:54;6.50;6.50;5.75
77320;PMS7003;66382;52.252;8.780;2023-04-30T03:53:20;4.00;4.00;3.25
77320;PMS7003;66382;52.252;8.780;2023-04-30T03:55:46;6.00;6.00;5.00
77320;PMS7003;66382;52.252;8.780;2023-04-30T03:58:14;8.75;8.75;5.75
77320;PMS7003;66382;52.252;8.780;2023-04-30T04:00:40;8.25;8.25;5.75
77320;PMS7003;66382;52.252;8.780;2023-04-30T04:03:06;9.25;9.25;6.00
77320;PMS7003;66382;52.252;8.780;2023-04-30T04:05:32;8.00;8.00;5.75
77320;PMS7003;66382;52.252;8.780;2023-04-30T04:07:57;6.00;6.00;5.00
77320;PMS7003;66382;52.252;8.780;2023-04-30T04:10:23;6.75;6.75;5.00
77320;PMS7003;66382;52.252;8.780;2023-04-30T04:12:49;6.00;6.00;5.00
77320;PMS7003;66382;52.252;8.780;2023-04-30T04:15:16;6.00;6.00;5.00
77320;PMS7003;66382;52.252;8.780;2023-04-30T04:17:42;8.75;8.75;5.75
77320;PMS7003;66382;52.252;8.780;2023-04-30T04:20:08;5.50;5.50;4.00
77320;PMS7003;66382;52.252;8.780;2023-04-30T04:22:34;9.00;8.00;5.00
77320;PMS7003;66382;52.252;8.780;2023-04-30T04:25:00;5.25;5.25;4.50
77320;PMS7003;66382;52.252;8.780;2023-04-30T04:27:26;6.00;6.00;5.00
77320;PMS7003;66382;52.252;8.780;2023-04-30T04:29:52;7.50;7.50;5.00
77320;PMS7003;66382;52.252;8.780;2023-04-30T04:32:19;10.25;8.75;5.50
77320;PMS7003;66382;52.252;8.780;2023-04-30T04:34:44;8.00;8.00;6.00
77320;PMS7003;66382;52.252;8.780;2023-04-30T04:37:10;7.75;7.75;5.50
77320;PMS7003;66382;52.252;8.780;2023-04-30T04:39:36;8.00;8.00;5.25
77320;PMS7003;66382;52.252;8.780;2023-04-30T04:42:02;7.75;7.75;5.50
77320;PMS7003;66382;52.252;8.780;2023-04-30T04:44:27;4.75;4.75;4.00
77320;PMS7003;66382;52.252;8.780;2023-04-30T04:46:53;8.00;8.00;5.00
77320;PMS7003;66382;52.252;8.780;2023-04-30T04:49:20;9.25;9.25;6.00
77320;PMS7003;66382;52.252;8.780;2023-04-30T04:51:46;8.00;8.00;6.00
77320;PMS7003;66382;52.252;8.780;2023-04-30T04:54:12;8.50;8.50;7.75
77320;PMS7003;66382;52.252;8.780;2023-04-30T04:56:37;8.00;8.00;6.00
77320;PMS7003;66382;52.252;8.780;2023-04-30T04:59:03;11.25;11.25;8.25
77320;PMS7003;66382;52.252;8.780;2023-04-30T05:01:29;10.00;10.00;8.50
77320;PMS7003;66382;52.252;8.780;2023-04-30T05:03:55;7.50;7.50;6.25
77320;PMS7003;66382;52.252;8.780;2023-04-30T05:06:22;9.50;9.50;6.00
77320;PMS7003;66382;52.252;8.780;2023-04-30T05:08:47;11.75;11.75;9.00
77320;PMS7003;66382;52.252;8.780;2023-04-30T05:11:13;10.25;10.25;7.50
77320;PMS7003;66382;52.252;8.780;2023-04-30T05:13:39;11.75;11.75;9.25
77320;PMS7003;66382;52.252;8.780;2023-04-30T05:16:04;10.50;10.50;7.50
77320;PMS7003;66382;52.252;8.780;2023-04-30T05:18:30;12.00;12.00;8.50
77320;PMS7003;66382;52.252;8.780;2023-04-30T05:20:56;13.75;13.75;10.25
77320;PMS7003;66382;52.252;8.780;2023-04-30T05:23:23;12.25;12.25;9.00
77320;PMS7003;66382;52.252;8.780;2023-04-30T05:25:50;10.00;10.00;6.75
77320;PMS7003;66382;52.252;8.780;2023-04-30T05:28:16;13.50;13.00;10.25
77320;PMS7003;66382;52.252;8.780;2023-04-30T05:30:41;12.00;12.00;9.75
77320;PMS7003;66382;52.252;8.780;2023-04-30T05:33:07;9.75;9.75;9.50
77320;PMS7003;66382;52.252;8.780;2023-04-30T05:35:33;9.75;9.75;7.00
77320;PMS7003;66382;52.252;8.780;2023-04-30T05:37:59;11.50;11.50;7.25
77320;PMS7003;66382;52.252;8.780;2023-04-30T05:40:26;12.25;11.75;7.00
77320;PMS7003;66382;52.252;8.780;2023-04-30T05:42:51;11.25;11.25;9.00
77320;PMS7003;66382;52.252;8.780;2023-04-30T05:45:17;9.25;9.25;6.00
77320;PMS7003;66382;52.252;8.780;2023-04-30T05:47:43;10.50;10.50;8.00
77320;PMS7003;66382;52.252;8.780;2023-04-30T05:50:09;7.75;7.75;6.00
77320;PMS7003;66382;52.252;8.780;2023-04-30T05:52:34;6.00;6.00;5.00
77320;PMS7003;66382;52.252;8.780;2023-04-30T05:55:00;8.00;8.00;7.00
77320;PMS7003;66382;52.252;8.780;2023-04-30T05:57:27;7.00;7.00;6.00
77320;PMS7003;66382;52.252;8.780;2023-04-30T05:59:53;6.25;6.25;5.25
77320;PMS7003;66382;52.252;8.780;2023-04-30T06:02:19;6.00;6.00;5.00
77320;PMS7003;66382;52.252;8.780;2023-04-30T06:04:44;5.00;5.00;4.00
77320;PMS7003;66382;52.252;8.780;2023-04-30T06:07:11;5.00;5.00;4.00
77320;PMS7003;66382;52.252;8.780;2023-04-30T06:09:37;4.25;4.25;4.00
77320;PMS7003;66382;52.252;8.780;2023-04-30T06:12:03;4.00;4.00;3.00
77320;PMS7003;66382;52.252;8.780;2023-04-30T06:14:30;6.00;6.00;4.00
77320;PMS7003;66382;52.252;8.780;2023-04-30T06:16:56;3.75;3.75;2.25
77320;PMS7003;66382;52.252;8.780;2023-04-30T06:19:23;6.00;6.00;5.00
77320;PMS7003;66382;52.252;8.780;2023-04-30T06:21:48;4.50;4.50;4.00
77320;PMS7003;66382;52.252;8.780;2023-04-30T06:24:14;5.25;5.25;4.50
77320;PMS7003;66382;52.252;8.780;2023-04-30T06:26:40;7.75;7.00;4.00
77320;PMS7003;66382;52.252;8.780;2023-04-30T06:29:06;5.00;5.00;4.00
77320;PMS7003;66382;52.252;8.780;2023-04-30T06:31:33;6.25;6.25;5.00
77320;PMS7003;66382;52.252;8.780;2023-04-30T06:33:58;8.00;8.00;6.00
77320;PMS7003;66382;52.252;8.780;2023-04-30T06:36:24;5.25;5.25;4.00
77320;PMS7003;66382;52.252;8.780;2023-04-30T06:38:50;6.00;6.00;4.25
77320;PMS7003;66382;52.252;8.780;2023-04-30T06:41:15;4.00;4.00;3.75
77320;PMS7003;66382;52.252;8.780;2023-04-30T06:43:41;5.25;5.25;4.00
77320;PMS7003;66382;52.252;8.780;2023-04-30T06:46:07;7.00;7.00;6.00
77320;PMS7003;66382;52.252;8.780;2023-04-30T06:48:34;7.00;7.00;5.75
77320;PMS7003;66382;52.252;8.780;2023-04-30T06:51:00;7.25;7.25;5.25
77320;PMS7003;66382;52.252;8.780;2023-04-30T06:53:26;10.00;10.00;7.50
77320;PMS7003;66382;52.252;8.780;2023-04-30T06:55:52;6.75;6.75;4.75
77320;PMS7003;66382;52.252;8.780;2023-04-30T06:58:18;4.75;4.75;4.00
77320;PMS7003;66382;52.252;8.780;2023-04-30T07:00:44;6.00;6.00;5.00
77320;PMS7003;66382;52.252;8.780;2023-04-30T07:03:10;5.00;5.00;4.00
77320;PMS7003;66382;52.252;8.780;2023-04-30T07:05:37;4.50;4.50;3.00
77320;PMS7003;66382;52.252;8.780;2023-04-30T07:08:03;6.00;6.00;4.75
77320;PMS7003;66382;52.252;8.780;2023-04-30T07:10:29;4.75;4.75;3.00
77320;PMS7003;66382;52.252;8.780;2023-04-30T07:12:55;6.00;6.00;4.00
77320;PMS7003;66382;52.252;8.780;2023-04-30T07:15:21;6.50;6.50;4.75
77320;PMS7003;66382;52.252;8.780;2023-04-30T07:17:46;5.00;5.00;4.50
77320;PMS7003;66382;52.252;8.780;2023-04-30T07:20:12;6.75;6.75;5.00
77320;PMS7003;66382;52.252;8.780;2023-04-30T07:22:39;4.25;4.25;3.75
77320;PMS7003;66382;52.252;8.780;2023-04-30T07:25:06;6.00;6.00;5.75
77320;PMS7003;66382;52.252;8.780;2023-04-30T07:27:32;6.75;6.75;6.00
77320;PMS7003;66382;52.252;8.780;2023-04-30T07:29:58;5.25;5.25;5.00
77320;PMS7003;66382;52.252;8.780;2023-04-30T07:32:23;7.00;7.00;5.50
77320;PMS7003;66382;52.252;8.780;2023-04-30T07:34:49;5.50;5.50;4.00
77320;PMS7003;66382;52.252;8.780;2023-04-30T07:37:15;4.25;4.00;3.00
77320;PMS7003;66382;52.252;8.780;2023-04-30T07:39:42;5.67;5.67;4.67
77320;PMS7003;66382;52.252;8.780;2023-04-30T07:42:09;6.00;6.00;4.00
77320;PMS7003;66382;52.252;8.780;2023-04-30T07:44:37;5.00;5.00;3.25
77320;PMS7003;66382;52.252;8.780;2023-04-30T07:47:03;7.67;7.00;4.67
77320;PMS7003;66382;52.252;8.780;2023-04-30T07:49:29;4.67;4.67;4.00
77320;PMS7003;66382;52.252;8.780;2023-04-30T07:51:55;3.67;3.67;3.67
77320;PMS7003;66382;52.252;8.780;2023-04-30T07:54:20;3.00;3.00;2.00
77320;PMS7003;66382;52.252;8.780;2023-04-30T07:56:47;2.00;2.00;1.00
77320;PMS7003;66382;52.252;8.780;2023-04-30T07:59:13;5.50;5.50;4.25
77320;PMS7003;66382;52.252;8.780;2023-04-30T08:01:39;6.67;6.67;5.00
77320;PMS7003;66382;52.252;8.780;2023-04-30T08:04:04;4.67;4.67;4.00
77320;PMS7003;66382;52.252;8.780;2023-04-30T08:06:30;5.67;5.67;4.00
77320;PMS7003;66382;52.252;8.780;2023-04-30T08:08:56;4.00;4.00;3.00
77320;PMS7003;66382;52.252;8.780;2023-04-30T08:11:22;4.67;4.67;4.00
77320;PMS7003;66382;52.252;8.780;2023-04-30T08:13:49;4.67;4.00;3.33
77320;PMS7003;66382;52.252;8.780;2023-04-30T08:16:14;3.75;3.75;3.00
77320;PMS7003;66382;52.252;8.780;2023-04-30T08:18:40;4.00;4.00;3.00
77320;PMS7003;66382;52.252;8.780;2023-04-30T08:21:06;4.00;4.00;3.33
77320;PMS7003;66382;52.252;8.780;2023-04-30T08:23:31;6.00;6.00;4.00
77320;PMS7003;66382;52.252;8.780;2023-04-30T08:25:57;7.33;7.33;6.00
77320;PMS7003;66382;52.252;8.780;2023-04-30T08:28:23;4.00;4.00;4.00
77320;PMS7003;66382;52.252;8.780;2023-04-30T08:30:50;4.00;4.00;3.00
77320;PMS7003;66382;52.252;8.780;2023-04-30T08:33:16;4.50;4.50;3.50
77320;PMS7003;66382;52.252;8.780;2023-04-30T08:35:41;5.00;5.00;4.00
77320;PMS7003;66382;52.252;8.780;2023-04-30T08:38:07;6.00;6.00;5.00
77320;PMS7003;66382;52.252;8.780;2023-04-30T08:40:33;5.00;5.00;4.00
77320;PMS7003;66382;52.252;8.780;2023-04-30T08:43:02;5.00;5.00;3.40
77320;PMS7003;66382;52.252;8.780;2023-04-30T08:45:29;5.00;5.00;4.00
77320;PMS7003;66382;52.252;8.780;2023-04-30T08:47:57;4.00;4.00;3.20
77320;PMS7003;66382;52.252;8.780;2023-04-30T08:50:24;4.20;4.20;3.60
77320;PMS7003;66382;52.252;8.780;2023-04-30T08:52:50;5.00;5.00;4.75
77320;PMS7003;66382;52.252;8.780;2023-04-30T08:55:15;4.50;4.50;4.00
77320;PMS7003;66382;52.252;8.780;2023-04-30T08:57:41;5.00;5.00;4.00
77320;PMS7003;66382;52.252;8.780;2023-04-30T09:00:07;4.50;4.50;4.00
77320;PMS7003;66382;52.252;8.780;2023-04-30T09:02:33;4.00;4.00;3.40
77320;PMS7003;66382;52.252;8.780;2023-04-30T09:05:06;3.20;3.20;2.80
77320;PMS7003;66382;52.252;8.780;2023-04-30T09:07:35;4.00;4.00;3.00
77320;PMS7003;66382;52.252;8.780;2023-04-30T09:10:02;3.80;3.80;3.00
77320;PMS7003;66382;52.252;8.780;2023-04-30T09:12:28;4.00;4.00;3.00
77320;PMS7003;66382;52.252;8.780;2023-04-30T09:14:57;3.00;3.00;2.50
77320;PMS7003;66382;52.252;8.780;2023-04-30T09:17:24;4.20;4.20;3.00
77320;PMS7003;66382;52.252;8.780;2023-04-30T09:19:50;5.25;5.25;4.00
77320;PMS7003;66382;52.252;8.780;2023-04-30T09:22:19;3.00;3.00;3.00
77320;PMS7003;66382;52.252;8.780;2023-04-30T09:24:46;4.00;4.00;3.00
77320;PMS7003;66382;52.252;8.780;2023-04-30T09:27:14;4.20;4.20;3.00
77320;PMS7003;66382;52.252;8.780;2023-04-30T09:29:41;3.20;3.20;3.00
77320;PMS7003;66382;52.252;8.780;2023-04-30T09:32:07;3.25;3.25;2.25
77320;PMS7003;66382;52.252;8.780;2023-04-30T09:34:33;3.00;3.00;3.00
77320;PMS7003;66382;52.252;8.780;2023-04-30T09:36:59;3.25;3.25;3.00
77320;PMS7003;66382;52.252;8.780;2023-04-30T09:39:26;1.50;1.50;1.00
77320;PMS7003;66382;52.252;8.780;2023-04-30T09:41:52;4.00;4.00;3.60
77320;PMS7003;66382;52.252;8.780;2023-04-30T09:44:35;4.00;4.00;3.60
77320;PMS7003;66382;52.252;8.780;2023-04-30T09:47:02;3.80;3.80;3.00
77320;PMS7003;66382;52.252;8.780;2023-04-30T09:49:28;3.25;3.25;3.25
77320;PMS7003;66382;52.252;8.780;2023-04-30T09:51:54;4.00;4.00;3.00
77320;PMS7003;66382;52.252;8.780;2023-04-30T09:54:21;4.00;4.00;3.00
77320;PMS7003;66382;52.252;8.780;2023-04-30T09:56:51;4.00;4.00;3.00
77320;PMS7003;66382;52.252;8.780;2023-04-30T09:59:18;3.00;3.00;3.00
77320;PMS7003;66382;52.252;8.780;2023-04-30T10:01:46;2.80;2.80;2.00
77320;PMS7003;66382;52.252;8.780;2023-04-30T10:04:12;3.00;3.00;2.00
77320;PMS7003;66382;52.252;8.780;2023-04-30T10:06:39;3.00;3.00;2.00
77320;PMS7003;66382;52.252;8.780;2023-04-30T10:09:06;3.20;3.20;3.00
77320;PMS7003;66382;52.252;8.780;2023-04-30T10:11:33;2.40;2.40;2.00
77320;PMS7003;66382;52.252;8.780;2023-04-30T10:14:05;4.20;4.20;3.00
77320;PMS7003;66382;52.252;8.780;2023-04-30T10:16:36;4.80;4.80;3.00
77320;PMS7003;66382;52.252;8.780;2023-04-30T10:19:09;3.80;3.80;2.80
77320;PMS7003;66382;52.252;8.780;2023-04-30T10:21:39;3.80;3.80;3.00
77320;PMS7003;66382;52.252;8.780;2023-04-30T10:24:07;3.00;3.00;3.00
77320;PMS7003;66382;52.252;8.780;2023-04-30T10:26:33;3.60;3.60;3.00
77320;PMS7003;66382;52.252;8.780;2023-04-30T10:29:00;3.40;3.40;3.00
77320;PMS7003;66382;52.252;8.780;2023-04-30T10:31:29;4.00;4.00;3.00
77320;PMS7003;66382;52.252;8.780;2023-04-30T10:33:58;4.20;2.40;2.20
77320;PMS7003;66382;52.252;8.780;2023-04-30T10:36:36;5.75;4.00;3.00
77320;PMS7003;66382;52.252;8.780;2023-04-30T10:39:07;3.00;3.00;3.00
77320;PMS7003;66382;52.252;8.780;2023-04-30T10:41:33;3.00;3.00;2.50
77320;PMS7003;66382;52.252;8.780;2023-04-30T10:44:00;4.33;4.33;3.33
77320;PMS7003;66382;52.252;8.780;2023-04-30T10:46:28;4.25;4.25;4.00
77320;PMS7003;66382;52.252;8.780;2023-04-30T10:48:54;6.25;6.25;5.75
77320;PMS7003;66382;52.252;8.780;2023-04-30T10:51:20;4.00;4.00;4.00
77320;PMS7003;66382;52.252;8.780;2023-04-30T10:53:46;5.00;5.00;4.25
77320;PMS7003;66382;52.252;8.780;2023-04-30T10:56:14;4.00;4.00;3.00
77320;PMS7003;66382;52.252;8.780;2023-04-30T10:58:57;3.00;3.00;2.25
77320;PMS7003;66382;52.252;8.780;2023-04-30T11:01:23;4.00;4.00;3.25
77320;PMS7003;66382;52.252;8.780;2023-04-30T11:04:03;4.00;4.00;4.00
77320;PMS7003;66382;52.252;8.780;2023-04-30T11:09:19;2.75;2.75;2.50
77320;PMS7003;66382;52.252;8.780;2023-04-30T11:11:45;5.00;5.00;4.33
77320;PMS7003;66382;52.252;8.780;2023-04-30T11:14:11;5.00;5.00;4.25
77320;PMS7003;66382;52.252;8.780;2023-04-30T11:16:37;5.00;5.00;4.00
77320;PMS7003;66382;52.252;8.780;2023-04-30T11:19:08;4.00;4.00;3.67
77320;PMS7003;66382;52.252;8.780;2023-04-30T11:21:38;5.75;5.75;5.00
77320;PMS7003;66382;52.252;8.780;2023-04-30T11:24:05;3.50;3.50;2.75
77320;PMS7003;66382;52.252;8.780;2023-04-30T11:26:40;5.00;5.00;4.50
77320;PMS7003;66382;52.252;8.780;2023-04-30T11:29:29;5.75;5.75;5.00
77320;PMS7003;66382;52.252;8.780;2023-04-30T11:31:56;6.00;6.00;5.25
77320;PMS7003;66382;52.252;8.780;2023-04-30T11:34:26;5.00;5.00;4.75
77320;PMS7003;66382;52.252;8.780;2023-04-30T11:36:52;5.25;5.25;3.25
77320;PMS7003;66382;52.252;8.780;2023-04-30T11:39:22;5.00;5.00;3.50
77320;PMS7003;66382;52.252;8.780;2023-04-30T11:41:49;3.00;3.00;2.00
77320;PMS7003;66382;52.252;8.780;2023-04-30T11:44:21;3.00;3.00;2.67
77320;PMS7003;66382;52.252;8.780;2023-04-30T11:46:47;4.75;4.75;3.00
77320;PMS7003;66382;52.252;8.780;2023-04-30T11:49:13;4.00;4.00;3.00
77320;PMS7003;66382;52.252;8.780;2023-04-30T11:51:40;3.00;3.00;2.33
77320;PMS7003;66382;52.252;8.780;2023-04-30T11:54:07;3.25;3.25;3.00
77320;PMS7003;66382;52.252;8.780;2023-04-30T11:56:36;5.00;5.00;3.75
77320;PMS7003;66382;52.252;8.780;2023-04-30T11:59:07;4.00;4.00;3.00
77320;PMS7003;66382;52.252;8.780;2023-04-30T12:01:34;5.00;5.00;3.25
77320;PMS7003;66382;52.252;8.780;2023-04-30T12:04:00;5.33;5.33;4.00
77320;PMS7003;66382;52.252;8.780;2023-04-30T12:06:27;5.75;5.75;4.50
77320;PMS7003;66382;52.252;8.780;2023-04-30T12:08:54;5.00;5.00;3.25
77320;PMS7003;66382;52.252;8.780;2023-04-30T12:11:20;4.00;4.00;3.25
77320;PMS7003;66382;52.252;8.780;2023-04-30T12:13:50;6.25;6.25;4.50
77320;PMS7003;66382;52.252;8.780;2023-04-30T12:16:17;4.00;4.00;3.00
77320;PMS7003;66382;52.252;8.780;2023-04-30T12:18:43;5.33;5.33;5.00
77320;PMS7003;66382;52.252;8.780;2023-04-30T12:21:08;5.00;5.00;4.67
77320;PMS7003;66382;52.252;8.780;2023-04-30T12:23:34;3.00;3.00;3.00
77320;PMS7003;66382;52.252;8.780;2023-04-30T12:26:02;4.00;4.00;3.00
77320;PMS7003;66382;52.252;8.780;2023-04-30T12:28:27;4.50;4.50;3.75
77320;PMS7003;66382;52.252;8.780;2023-04-30T12:30:53;4.67;4.67;4.00
77320;PMS7003;66382;52.252;8.780;2023-04-30T12:33:19;4.67;4.67;4.00
77320;PMS7003;66382;52.252;8.780;2023-04-30T12:35:45;4.00;4.00;3.00
77320;PMS7003;66382;52.252;8.780;2023-04-30T12:38:14;5.00;5.00;4.00
77320;PMS7003;66382;52.252;8.780;2023-04-30T12:40:45;4.75;4.75;3.75
77320;PMS7003;66382;52.252;8.780;2023-04-30T12:43:13;4.25;4.25;3.75
77320;PMS7003;66382;52.252;8.780;2023-04-30T12:45:44;4.75;4.75;4.00
77320;PMS7003;66382;52.252;8.780;2023-04-30T12:48:11;3.50;3.50;3.00
77320;PMS7003;66382;52.252;8.780;2023-04-30T12:50:37;3.75;3.75;3.00
77320;PMS7003;66382;52.252;8.780;2023-04-30T12:53:03;3.00;3.00;2.00
77320;PMS7003;66382;52.252;8.780;2023-04-30T12:55:29;3.00;3.00;2.50
77320;PMS7003;66382;52.252;8.780;2023-04-30T12:58:02;3.00;3.00;3.00
77320;PMS7003;66382;52.252;8.780;2023-04-30T13:00:45;2.50;2.50;2.00
77320;PMS7003;66382;52.252;8.780;2023-04-30T13:03:12;3.00;3.00;2.75
77320;PMS7003;66382;52.252;8.780;2023-04-30T13:05:38;4.00;4.00;3.33
77320;PMS7003;66382;52.252;8.780;2023-04-30T13:08:04;1.00;1.00;1.00
77320;PMS7003;66382;52.252;8.780;2023-04-30T13:10:30;3.00;3.00;3.00
77320;PMS7003;66382;52.252;8.780;2023-04-30T13:12:56;3.00;3.00;3.00
77320;PMS7003;66382;52.252;8.780;2023-04-30T13:15:21;3.33;3.33;2.00
77320;PMS7003;66382;52.252;8.780;2023-04-30T13:17:49;3.00;3.00;2.00
77320;PMS7003;66382;52.252;8.780;2023-04-30T13:20:15;2.00;2.00;2.00
77320;PMS7003;66382;52.252;8.780;2023-04-30T13:22:40;2.50;2.50;2.00
77320;PMS7003;66382;52.252;8.780;2023-04-30T13:25:06;3.00;3.00;2.67
77320;PMS7003;66382;52.252;8.780;2023-04-30T13:27:32;2.75;2.75;2.00
77320;PMS7003;66382;52.252;8.780;2023-04-30T13:29:58;2.33;2.33;2.00
77320;PMS7003;66382;52.252;8.780;2023-04-30T13:32:25;3.25;3.25;2.25
77320;PMS7003;66382;52.252;8.780;2023-04-30T13:34:52;2.00;2.00;2.00
77320;PMS7003;66382;52.252;8.780;2023-04-30T13:37:18;2.25;2.25;2.00
77320;PMS7003;66382;52.252;8.780;2023-04-30T13:39:43;1.00;1.00;1.00
77320;PMS7003;66382;52.252;8.780;2023-04-30T13:42:09;3.67;3.67;3.00
77320;PMS7003;66382;52.252;8.780;2023-04-30T13:44:35;3.67;3.67;3.00
77320;PMS7003;66382;52.252;8.780;2023-04-30T13:47:00;2.00;2.00;1.33
77320;PMS7003;66382;52.252;8.780;2023-04-30T13:49:26;3.00;3.00;2.33
77320;PMS7003;66382;52.252;8.780;2023-04-30T13:51:53;2.00;2.00;2.00
77320;PMS7003;66382;52.252;8.780;2023-04-30T13:54:19;2.25;2.25;2.00
77320;PMS7003;66382;52.252;8.780;2023-04-30T13:56:45;2.00;2.00;1.00
77320;PMS7003;66382;52.252;8.780;2023-04-30T13:59:11;2.00;2.00;2.00
77320;PMS7003;66382;52.252;8.780;2023-04-30T14:01:36;3.00;3.00;2.00
77320;PMS7003;66382;52.252;8.780;2023-04-30T14:04:02;2.00;2.00;2.00
77320;PMS7003;66382;52.252;8.780;2023-04-30T14:06:28;3.00;3.00;2.33
77320;PMS7003;66382;52.252;8.780;2023-04-30T14:08:55;2.00;2.00;1.00
77320;PMS7003;66382;52.252;8.780;2023-04-30T14:11:21;2.00;2.00;2.00
77320;PMS7003;66382;52.252;8.780;2023-04-30T14:13:46;3.00;3.00;2.00
77320;PMS7003;66382;52.252;8.780;2023-04-30T14:16:12;3.33;3.33;3.00
77320;PMS7003;66382;52.252;8.780;2023-04-30T14:18:38;3.00;3.00;3.00
77320;PMS7003;66382;52.252;8.780;2023-04-30T14:21:03;2.00;2.00;1.67
77320;PMS7003;66382;52.252;8.780;2023-04-30T14:23:29;3.00;3.00;2.67
77320;PMS7003;66382;52.252;8.780;2023-04-30T14:25:56;4.00;4.00;3.00